sensor_id;sensor_type;location;lat;lon;timestamp;P1;durP1;ratioP1;P2;durP2;ratioP2
4323;SDS011;2175;51.018;6.994;2022-10-18T00:01:34;10.70;;;6.70;;
4323;SDS011;2175;51.018;6.994;2022-10-18T00:04:00;11.60;;;7.03;;
4323;SDS011;2175;51.018;6.994;2022-10-18T00:06:25;13.70;;;7.60;;
4323;SDS011;2175;51.018;6.994;2022-10-18T00:08:51;9.63;;;6.80;;
4323;SDS011;2175;51.018;6.994;2022-10-18T00:11:16;12.70;;;7.80;;
4323;SDS011;2175;51.018;6.994;2022-10-18T00:13:42;8.43;;;6.17;;
4323;SDS011;2175;51.018;6.994;2022-10-18T00:16:10;8.83;;;6.33;;
4323;SDS011;2175;51.018;6.994;2022-10-18T00:18:37;10.77;;;6.67;;
4323;SDS011;2175;51.018;6.994;2022-10-18T00:21:04;10.50;;;6.53;;
4323;SDS011;2175;51.018;6.994;2022-10-18T00:23:31;11.87;;;6.47;;
4323;SDS011;2175;51.018;6.994;2022-10-18T00:26:02;9.50;;;5.97;;
4323;SDS011;2175;51.018;6.994;2022-10-18T00:28:30;9.83;;;6.40;;
4323;SDS011;2175;51.018;6.994;2022-10-18T00:30:57;9.00;;;6.23;;
4323;SDS011;2175;51.018;6.994;2022-10-18T00:33:43;9.10;;;6.87;;
4323;SDS011;2175;51.018;6.994;2022-10-18T00:36:10;8.40;;;5.73;;
4323;SDS011;2175;51.018;6.994;2022-10-18T00:38:36;11.73;;;6.90;;
4323;SDS011;2175;51.018;6.994;2022-10-18T00:41:03;10.90;;;6.50;;
4323;SDS011;2175;51.018;6.994;2022-10-18T00:43:30;9.50;;;6.43;;
4323;SDS011;2175;51.018;6.994;2022-10-18T00:45:56;8.30;;;6.40;;
4323;SDS011;2175;51.018;6.994;2022-10-18T00:48:22;10.20;;;6.80;;
4323;SDS011;2175;51.018;6.994;2022-10-18T00:50:49;8.93;;;6.20;;
4323;SDS011;2175;51.018;6.994;2022-10-18T00:53:17;8.90;;;6.63;;
4323;SDS011;2175;51.018;6.994;2022-10-18T00:55:45;11.77;;;7.47;;
4323;SDS011;2175;51.018;6.994;2022-10-18T00:58:12;9.80;;;6.43;;
4323;SDS011;2175;51.018;6.994;2022-10-18T01:00:40;10.23;;;7.17;;
4323;SDS011;2175;51.018;6.994;2022-10-18T01:03:06;14.60;;;8.30;;
4323;SDS011;2175;51.018;6.994;2022-10-18T01:05:34;12.20;;;8.20;;
4323;SDS011;2175;51.018;6.994;2022-10-18T01:08:08;10.93;;;7.67;;
4323;SDS011;2175;51.018;6.994;2022-10-18T01:10:44;9.83;;;7.60;;
4323;SDS011;2175;51.018;6.994;2022-10-18T01:21:45;16.67;;;8.00;;
4323;SDS011;2175;51.018;6.994;2022-10-18T01:27:42;10.80;;;8.17;;
4323;SDS011;2175;51.018;6.994;2022-10-18T01:30:38;12.20;;;8.20;;
4323;SDS011;2175;51.018;6.994;2022-10-18T01:36:20;11.50;;;8.13;;
4323;SDS011;2175;51.018;6.994;2022-10-18T01:38:53;11.90;;;7.27;;
4323;SDS011;2175;51.018;6.994;2022-10-18T01:41:23;12.73;;;8.90;;
4323;SDS011;2175;51.018;6.994;2022-10-18T01:43:50;11.17;;;8.67;;
4323;SDS011;2175;51.018;6.994;2022-10-18T01:46:21;16.77;;;8.87;;
4323;SDS011;2175;51.018;6.994;2022-10-18T01:48:50;12.50;;;9.50;;
4323;SDS011;2175;51.018;6.994;2022-10-18T01:51:26;18.33;;;9.63;;
4323;SDS011;2175;51.018;6.994;2022-10-18T01:53:57;11.10;;;9.23;;
4323;SDS011;2175;51.018;6.994;2022-10-18T02:04:38;13.67;;;8.80;;
4323;SDS011;2175;51.018;6.994;2022-10-18T02:07:57;10.77;;;8.50;;
4323;SDS011;2175;51.018;6.994;2022-10-18T02:10:23;16.90;;;9.27;;
4323;SDS011;2175;51.018;6.994;2022-10-18T02:12:57;11.83;;;8.70;;
4323;SDS011;2175;51.018;6.994;2022-10-18T02:15:26;12.10;;;9.20;;
4323;SDS011;2175;51.018;6.994;2022-10-18T02:17:55;14.13;;;10.00;;
4323;SDS011;2175;51.018;6.994;2022-10-18T02:20:21;11.27;;;8.80;;
4323;SDS011;2175;51.018;6.994;2022-10-18T02:22:49;14.93;;;9.70;;
4323;SDS011;2175;51.018;6.994;2022-10-18T02:25:23;13.73;;;9.40;;
4323;SDS011;2175;51.018;6.994;2022-10-18T02:27:51;11.60;;;9.03;;
4323;SDS011;2175;51.018;6.994;2022-10-18T02:30:18;14.57;;;9.50;;
4323;SDS011;2175;51.018;6.994;2022-10-18T02:35:25;15.23;;;9.83;;
4323;SDS011;2175;51.018;6.994;2022-10-18T02:37:56;12.70;;;10.00;;
4323;SDS011;2175;51.018;6.994;2022-10-18T02:40:23;13.77;;;9.33;;
4323;SDS011;2175;51.018;6.994;2022-10-18T02:42:53;16.50;;;9.30;;
4323;SDS011;2175;51.018;6.994;2022-10-18T02:45:22;12.13;;;9.60;;
4323;SDS011;2175;51.018;6.994;2022-10-18T02:47:49;17.60;;;9.53;;
4323;SDS011;2175;51.018;6.994;2022-10-18T02:50:15;12.23;;;9.07;;
4323;SDS011;2175;51.018;6.994;2022-10-18T02:52:40;13.63;;;8.97;;
4323;SDS011;2175;51.018;6.994;2022-10-18T02:55:06;11.30;;;8.63;;
4323;SDS011;2175;51.018;6.994;2022-10-18T02:57:32;13.20;;;9.10;;
4323;SDS011;2175;51.018;6.994;2022-10-18T02:59:58;14.33;;;9.57;;
4323;SDS011;2175;51.018;6.994;2022-10-18T03:02:24;10.87;;;8.43;;
4323;SDS011;2175;51.018;6.994;2022-10-18T03:04:49;16.93;;;8.90;;
4323;SDS011;2175;51.018;6.994;2022-10-18T03:07:15;13.03;;;8.90;;
4323;SDS011;2175;51.018;6.994;2022-10-18T03:09:41;13.50;;;8.93;;
4323;SDS011;2175;51.018;6.994;2022-10-18T03:12:06;12.50;;;9.07;;
4323;SDS011;2175;51.018;6.994;2022-10-18T03:14:32;11.47;;;8.93;;
4323;SDS011;2175;51.018;6.994;2022-10-18T03:16:57;14.77;;;9.20;;
4323;SDS011;2175;51.018;6.994;2022-10-18T03:19:23;17.47;;;10.33;;
4323;SDS011;2175;51.018;6.994;2022-10-18T03:21:49;16.60;;;9.90;;
4323;SDS011;2175;51.018;6.994;2022-10-18T03:24:14;14.93;;;9.13;;
4323;SDS011;2175;51.018;6.994;2022-10-18T03:26:40;14.27;;;10.10;;
4323;SDS011;2175;51.018;6.994;2022-10-18T03:29:05;19.47;;;9.40;;
4323;SDS011;2175;51.018;6.994;2022-10-18T03:31:33;14.67;;;10.53;;
4323;SDS011;2175;51.018;6.994;2022-10-18T03:33:59;11.40;;;10.17;;
4323;SDS011;2175;51.018;6.994;2022-10-18T03:36:24;14.70;;;10.53;;
4323;SDS011;2175;51.018;6.994;2022-10-18T03:38:50;12.60;;;9.47;;
4323;SDS011;2175;51.018;6.994;2022-10-18T03:41:16;12.50;;;9.30;;
4323;SDS011;2175;51.018;6.994;2022-10-18T03:43:41;15.10;;;10.20;;
4323;SDS011;2175;51.018;6.994;2022-10-18T03:46:07;14.43;;;9.97;;
4323;SDS011;2175;51.018;6.994;2022-10-18T03:48:32;15.17;;;9.93;;
4323;SDS011;2175;51.018;6.994;2022-10-18T03:50:58;15.30;;;10.63;;
4323;SDS011;2175;51.018;6.994;2022-10-18T03:53:24;15.57;;;10.20;;
4323;SDS011;2175;51.018;6.994;2022-10-18T03:55:53;13.93;;;10.50;;
4323;SDS011;2175;51.018;6.994;2022-10-18T03:58:19;13.40;;;10.37;;
4323;SDS011;2175;51.018;6.994;2022-10-18T04:00:47;15.23;;;9.70;;
4323;SDS011;2175;51.018;6.994;2022-10-18T04:03:14;18.10;;;10.70;;
4323;SDS011;2175;51.018;6.994;2022-10-18T04:05:40;14.20;;;9.97;;
4323;SDS011;2175;51.018;6.994;2022-10-18T04:08:06;17.10;;;10.23;;
4323;SDS011;2175;51.018;6.994;2022-10-18T04:10:31;13.20;;;9.50;;
4323;SDS011;2175;51.018;6.994;2022-10-18T04:13:00;15.53;;;9.70;;
4323;SDS011;2175;51.018;6.994;2022-10-18T04:15:26;14.80;;;9.10;;
4323;SDS011;2175;51.018;6.994;2022-10-18T04:17:51;19.43;;;9.43;;
4323;SDS011;2175;51.018;6.994;2022-10-18T04:20:17;15.40;;;9.70;;
4323;SDS011;2175;51.018;6.994;2022-10-18T04:22:43;12.17;;;8.67;;
4323;SDS011;2175;51.018;6.994;2022-10-18T04:25:08;12.77;;;9.00;;
4323;SDS011;2175;51.018;6.994;2022-10-18T04:27:34;11.90;;;8.80;;
4323;SDS011;2175;51.018;6.994;2022-10-18T04:30:00;10.90;;;8.60;;
4323;SDS011;2175;51.018;6.994;2022-10-18T04:32:26;9.50;;;8.40;;
4323;SDS011;2175;51.018;6.994;2022-10-18T04:34:53;9.93;;;7.83;;
4323;SDS011;2175;51.018;6.994;2022-10-18T04:37:18;14.07;;;9.20;;
4323;SDS011;2175;51.018;6.994;2022-10-18T04:39:44;12.23;;;9.27;;
4323;SDS011;2175;51.018;6.994;2022-10-18T04:42:13;12.83;;;8.43;;
4323;SDS011;2175;51.018;6.994;2022-10-18T04:44:39;12.43;;;8.23;;
4323;SDS011;2175;51.018;6.994;2022-10-18T04:47:04;9.20;;;8.20;;
4323;SDS011;2175;51.018;6.994;2022-10-18T04:49:31;10.17;;;8.00;;
4323;SDS011;2175;51.018;6.994;2022-10-18T04:51:57;9.10;;;7.50;;
4323;SDS011;2175;51.018;6.994;2022-10-18T04:54:22;12.00;;;8.60;;
4323;SDS011;2175;51.018;6.994;2022-10-18T04:56:48;13.47;;;8.20;;
4323;SDS011;2175;51.018;6.994;2022-10-18T04:59:13;11.50;;;9.33;;
4323;SDS011;2175;51.018;6.994;2022-10-18T05:01:39;12.17;;;9.23;;
4323;SDS011;2175;51.018;6.994;2022-10-18T05:04:04;14.80;;;8.80;;
4323;SDS011;2175;51.018;6.994;2022-10-18T05:06:30;15.20;;;9.57;;
4323;SDS011;2175;51.018;6.994;2022-10-18T05:08:56;11.93;;;8.80;;
4323;SDS011;2175;51.018;6.994;2022-10-18T05:11:21;13.77;;;8.53;;
4323;SDS011;2175;51.018;6.994;2022-10-18T05:13:47;11.83;;;9.27;;
4323;SDS011;2175;51.018;6.994;2022-10-18T05:16:12;17.70;;;8.40;;
4323;SDS011;2175;51.018;6.994;2022-10-18T05:18:39;12.43;;;8.63;;
4323;SDS011;2175;51.018;6.994;2022-10-18T05:21:07;10.87;;;9.10;;
4323;SDS011;2175;51.018;6.994;2022-10-18T05:23:32;13.80;;;8.57;;
4323;SDS011;2175;51.018;6.994;2022-10-18T05:26:03;9.70;;;8.13;;
4323;SDS011;2175;51.018;6.994;2022-10-18T05:28:30;10.03;;;8.33;;
4323;SDS011;2175;51.018;6.994;2022-10-18T05:30:59;16.67;;;9.13;;
4323;SDS011;2175;51.018;6.994;2022-10-18T05:33:28;13.00;;;9.20;;
4323;SDS011;2175;51.018;6.994;2022-10-18T05:35:54;13.10;;;8.30;;
4323;SDS011;2175;51.018;6.994;2022-10-18T05:38:19;11.53;;;8.40;;
4323;SDS011;2175;51.018;6.994;2022-10-18T05:40:45;10.10;;;8.70;;
4323;SDS011;2175;51.018;6.994;2022-10-18T05:43:11;13.67;;;9.50;;
4323;SDS011;2175;51.018;6.994;2022-10-18T05:45:36;17.83;;;10.40;;
4323;SDS011;2175;51.018;6.994;2022-10-18T05:48:02;10.70;;;9.23;;
4323;SDS011;2175;51.018;6.994;2022-10-18T05:50:29;15.30;;;8.60;;
4323;SDS011;2175;51.018;6.994;2022-10-18T05:52:55;12.20;;;9.23;;
4323;SDS011;2175;51.018;6.994;2022-10-18T05:55:21;17.30;;;8.70;;
4323;SDS011;2175;51.018;6.994;2022-10-18T05:57:48;12.80;;;10.07;;
4323;SDS011;2175;51.018;6.994;2022-10-18T06:00:14;18.47;;;10.30;;
4323;SDS011;2175;51.018;6.994;2022-10-18T06:02:40;13.20;;;9.60;;
4323;SDS011;2175;51.018;6.994;2022-10-18T06:05:05;14.87;;;9.30;;
4323;SDS011;2175;51.018;6.994;2022-10-18T06:07:31;14.53;;;9.70;;
4323;SDS011;2175;51.018;6.994;2022-10-18T06:09:57;12.57;;;8.83;;
4323;SDS011;2175;51.018;6.994;2022-10-18T06:12:22;13.47;;;8.93;;
4323;SDS011;2175;51.018;6.994;2022-10-18T06:14:48;17.40;;;8.80;;
4323;SDS011;2175;51.018;6.994;2022-10-18T06:17:14;12.70;;;8.27;;
4323;SDS011;2175;51.018;6.994;2022-10-18T06:19:39;15.60;;;9.27;;
4323;SDS011;2175;51.018;6.994;2022-10-18T06:22:07;10.93;;;7.80;;
4323;SDS011;2175;51.018;6.994;2022-10-18T06:24:32;12.77;;;8.47;;
4323;SDS011;2175;51.018;6.994;2022-10-18T06:26:58;13.30;;;9.10;;
4323;SDS011;2175;51.018;6.994;2022-10-18T06:29:24;14.27;;;9.30;;
4323;SDS011;2175;51.018;6.994;2022-10-18T06:31:49;10.87;;;8.70;;
4323;SDS011;2175;51.018;6.994;2022-10-18T06:34:15;15.87;;;9.37;;
4323;SDS011;2175;51.018;6.994;2022-10-18T06:36:41;10.57;;;8.30;;
4323;SDS011;2175;51.018;6.994;2022-10-18T06:39:07;13.17;;;8.67;;
4323;SDS011;2175;51.018;6.994;2022-10-18T06:41:33;15.07;;;9.20;;
4323;SDS011;2175;51.018;6.994;2022-10-18T06:43:58;10.47;;;8.33;;
4323;SDS011;2175;51.018;6.994;2022-10-18T06:46:27;14.67;;;9.00;;
4323;SDS011;2175;51.018;6.994;2022-10-18T06:48:52;10.67;;;8.67;;
4323;SDS011;2175;51.018;6.994;2022-10-18T06:51:18;15.40;;;9.43;;
4323;SDS011;2175;51.018;6.994;2022-10-18T06:53:44;11.90;;;9.60;;
4323;SDS011;2175;51.018;6.994;2022-10-18T06:56:10;15.90;;;8.77;;
4323;SDS011;2175;51.018;6.994;2022-10-18T06:58:37;12.13;;;9.10;;
4323;SDS011;2175;51.018;6.994;2022-10-18T07:01:13;10.60;;;7.93;;
4323;SDS011;2175;51.018;6.994;2022-10-18T07:03:41;10.57;;;8.13;;
4323;SDS011;2175;51.018;6.994;2022-10-18T07:06:07;16.30;;;9.00;;
4323;SDS011;2175;51.018;6.994;2022-10-18T07:08:34;9.93;;;7.60;;
4323;SDS011;2175;51.018;6.994;2022-10-18T07:11:00;10.53;;;8.77;;
4323;SDS011;2175;51.018;6.994;2022-10-18T07:13:27;12.37;;;9.50;;
4323;SDS011;2175;51.018;6.994;2022-10-18T07:16:00;12.80;;;8.60;;
4323;SDS011;2175;51.018;6.994;2022-10-18T07:18:33;12.00;;;8.70;;
4323;SDS011;2175;51.018;6.994;2022-10-18T07:21:04;13.20;;;9.10;;
4323;SDS011;2175;51.018;6.994;2022-10-18T07:23:32;11.50;;;8.83;;
4323;SDS011;2175;51.018;6.994;2022-10-18T07:25:59;10.93;;;8.97;;
4323;SDS011;2175;51.018;6.994;2022-10-18T07:28:25;10.00;;;8.13;;
4323;SDS011;2175;51.018;6.994;2022-10-18T07:30:52;10.63;;;8.10;;
4323;SDS011;2175;51.018;6.994;2022-10-18T07:33:17;9.77;;;8.70;;
4323;SDS011;2175;51.018;6.994;2022-10-18T07:35:44;12.10;;;9.27;;
4323;SDS011;2175;51.018;6.994;2022-10-18T07:38:10;13.30;;;9.50;;
4323;SDS011;2175;51.018;6.994;2022-10-18T07:40:36;11.67;;;9.10;;
4323;SDS011;2175;51.018;6.994;2022-10-18T07:43:01;12.77;;;8.53;;
4323;SDS011;2175;51.018;6.994;2022-10-18T07:45:27;13.03;;;8.70;;
4323;SDS011;2175;51.018;6.994;2022-10-18T07:47:53;15.33;;;9.80;;
4323;SDS011;2175;51.018;6.994;2022-10-18T07:50:20;13.87;;;10.00;;
4323;SDS011;2175;51.018;6.994;2022-10-18T07:52:46;14.53;;;9.20;;
4323;SDS011;2175;51.018;6.994;2022-10-18T07:55:11;14.47;;;10.93;;
4323;SDS011;2175;51.018;6.994;2022-10-18T07:57:37;13.73;;;10.70;;
4323;SDS011;2175;51.018;6.994;2022-10-18T08:00:03;12.60;;;9.40;;
4323;SDS011;2175;51.018;6.994;2022-10-18T08:02:29;11.80;;;9.70;;
4323;SDS011;2175;51.018;6.994;2022-10-18T08:04:54;13.37;;;9.90;;
4323;SDS011;2175;51.018;6.994;2022-10-18T08:07:20;10.63;;;9.43;;
4323;SDS011;2175;51.018;6.994;2022-10-18T08:09:45;11.17;;;9.63;;
4323;SDS011;2175;51.018;6.994;2022-10-18T08:12:11;13.07;;;9.83;;
4323;SDS011;2175;51.018;6.994;2022-10-18T08:14:37;13.27;;;10.00;;
4323;SDS011;2175;51.018;6.994;2022-10-18T08:17:02;12.00;;;10.30;;
4323;SDS011;2175;51.018;6.994;2022-10-18T08:19:28;18.63;;;11.00;;
4323;SDS011;2175;51.018;6.994;2022-10-18T08:21:53;15.57;;;11.47;;
4323;SDS011;2175;51.018;6.994;2022-10-18T08:24:19;19.07;;;12.43;;
4323;SDS011;2175;51.018;6.994;2022-10-18T08:26:45;17.30;;;11.47;;
4323;SDS011;2175;51.018;6.994;2022-10-18T08:29:13;13.77;;;11.37;;
4323;SDS011;2175;51.018;6.994;2022-10-18T08:31:39;14.23;;;11.00;;
4323;SDS011;2175;51.018;6.994;2022-10-18T08:34:04;14.90;;;11.20;;
4323;SDS011;2175;51.018;6.994;2022-10-18T08:36:30;22.97;;;11.20;;
4323;SDS011;2175;51.018;6.994;2022-10-18T08:38:55;20.50;;;12.53;;
4323;SDS011;2175;51.018;6.994;2022-10-18T08:46:51;19.30;;;13.10;;
4323;SDS011;2175;51.018;6.994;2022-10-18T08:49:26;21.20;;;13.50;;
4323;SDS011;2175;51.018;6.994;2022-10-18T08:57:35;26.50;;;17.23;;
4323;SDS011;2175;51.018;6.994;2022-10-18T09:00:02;26.83;;;18.10;;
4323;SDS011;2175;51.018;6.994;2022-10-18T09:02:47;35.60;;;20.93;;
4323;SDS011;2175;51.018;6.994;2022-10-18T09:08:22;39.63;;;20.23;;
4323;SDS011;2175;51.018;6.994;2022-10-18T09:11:20;41.53;;;22.47;;
4323;SDS011;2175;51.018;6.994;2022-10-18T09:19:59;80.10;;;31.67;;
4323;SDS011;2175;51.018;6.994;2022-10-18T09:22:53;72.03;;;29.60;;
4323;SDS011;2175;51.018;6.994;2022-10-18T09:35:42;85.23;;;33.90;;
4323;SDS011;2175;51.018;6.994;2022-10-18T09:38:14;89.00;;;34.10;;
4323;SDS011;2175;51.018;6.994;2022-10-18T09:40:46;98.20;;;35.20;;
4323;SDS011;2175;51.018;6.994;2022-10-18T09:43:48;86.43;;;34.50;;
4323;SDS011;2175;51.018;6.994;2022-10-18T09:46:25;87.67;;;34.20;;
4323;SDS011;2175;51.018;6.994;2022-10-18T09:49:01;84.40;;;34.80;;
4323;SDS011;2175;51.018;6.994;2022-10-18T09:51:35;89.20;;;33.60;;
4323;SDS011;2175;51.018;6.994;2022-10-18T09:56:51;85.73;;;34.57;;
4323;SDS011;2175;51.018;6.994;2022-10-18T09:59:46;90.87;;;35.93;;
4323;SDS011;2175;51.018;6.994;2022-10-18T10:02:20;77.20;;;33.30;;
4323;SDS011;2175;51.018;6.994;2022-10-18T10:04:47;82.80;;;34.57;;
4323;SDS011;2175;51.018;6.994;2022-10-18T10:07:15;90.50;;;35.80;;
4323;SDS011;2175;51.018;6.994;2022-10-18T10:09:46;88.20;;;34.97;;
4323;SDS011;2175;51.018;6.994;2022-10-18T10:15:18;95.37;;;37.40;;
4323;SDS011;2175;51.018;6.994;2022-10-18T10:20:22;83.07;;;36.53;;
4323;SDS011;2175;51.018;6.994;2022-10-18T10:22:55;89.90;;;38.80;;
4323;SDS011;2175;51.018;6.994;2022-10-18T10:25:56;95.63;;;38.63;;
4323;SDS011;2175;51.018;6.994;2022-10-18T10:28:27;95.57;;;40.30;;
4323;SDS011;2175;51.018;6.994;2022-10-18T10:33:44;96.10;;;40.77;;
4323;SDS011;2175;51.018;6.994;2022-10-18T10:36:15;90.83;;;39.57;;
4323;SDS011;2175;51.018;6.994;2022-10-18T10:38:42;78.10;;;37.60;;
4323;SDS011;2175;51.018;6.994;2022-10-18T10:41:18;73.70;;;36.47;;
4323;SDS011;2175;51.018;6.994;2022-10-18T10:43:45;72.47;;;36.20;;
4323;SDS011;2175;51.018;6.994;2022-10-18T10:46:16;73.43;;;35.87;;
4323;SDS011;2175;51.018;6.994;2022-10-18T10:48:45;71.87;;;36.53;;
4323;SDS011;2175;51.018;6.994;2022-10-18T10:51:13;73.80;;;36.00;;
4323;SDS011;2175;51.018;6.994;2022-10-18T10:53:42;67.40;;;33.57;;
4323;SDS011;2175;51.018;6.994;2022-10-18T10:56:28;68.33;;;33.73;;
4323;SDS011;2175;51.018;6.994;2022-10-18T10:59:01;60.07;;;32.90;;
4323;SDS011;2175;51.018;6.994;2022-10-18T11:01:33;66.63;;;34.80;;
4323;SDS011;2175;51.018;6.994;2022-10-18T11:04:01;51.70;;;31.33;;
4323;SDS011;2175;51.018;6.994;2022-10-18T11:06:52;62.03;;;32.13;;
4323;SDS011;2175;51.018;6.994;2022-10-18T11:12:17;57.27;;;34.20;;
4323;SDS011;2175;51.018;6.994;2022-10-18T11:14:49;65.83;;;35.33;;
4323;SDS011;2175;51.018;6.994;2022-10-18T11:28:27;53.97;;;35.33;;
4323;SDS011;2175;51.018;6.994;2022-10-18T11:31:11;59.13;;;37.20;;
4323;SDS011;2175;51.018;6.994;2022-10-18T11:37:03;63.17;;;40.13;;
4323;SDS011;2175;51.018;6.994;2022-10-18T11:53:17;62.70;;;43.07;;
4323;SDS011;2175;51.018;6.994;2022-10-18T12:02:02;69.17;;;45.27;;
4323;SDS011;2175;51.018;6.994;2022-10-18T12:04:50;76.00;;;47.87;;
4323;SDS011;2175;51.018;6.994;2022-10-18T12:07:20;73.87;;;45.17;;
4323;SDS011;2175;51.018;6.994;2022-10-18T12:09:48;71.80;;;47.47;;
4323;SDS011;2175;51.018;6.994;2022-10-18T12:12:23;74.77;;;48.30;;
4323;SDS011;2175;51.018;6.994;2022-10-18T12:19:55;69.57;;;49.50;;
4323;SDS011;2175;51.018;6.994;2022-10-18T12:22:29;77.93;;;49.70;;
4323;SDS011;2175;51.018;6.994;2022-10-18T12:25:00;77.13;;;50.10;;
4323;SDS011;2175;51.018;6.994;2022-10-18T12:28:12;79.33;;;49.33;;
4323;SDS011;2175;51.018;6.994;2022-10-18T12:30:26;74.10;;;49.07;;
4323;SDS011;2175;51.018;6.994;2022-10-18T12:33:04;88.47;;;57.83;;
4323;SDS011;2175;51.018;6.994;2022-10-18T12:38:30;123.57;;;68.50;;
4323;SDS011;2175;51.018;6.994;2022-10-18T12:40:58;114.40;;;67.60;;
4323;SDS011;2175;51.018;6.994;2022-10-18T12:43:28;116.97;;;64.27;;
4323;SDS011;2175;51.018;6.994;2022-10-18T12:46:00;119.47;;;65.33;;
4323;SDS011;2175;51.018;6.994;2022-10-18T12:48:38;115.57;;;63.10;;
4323;SDS011;2175;51.018;6.994;2022-10-18T12:51:17;109.77;;;59.80;;
4323;SDS011;2175;51.018;6.994;2022-10-18T12:53:44;118.40;;;62.00;;
4323;SDS011;2175;51.018;6.994;2022-10-18T12:59:38;116.57;;;58.73;;
4323;SDS011;2175;51.018;6.994;2022-10-18T13:09:39;95.33;;;48.80;;
4323;SDS011;2175;51.018;6.994;2022-10-18T13:17:30;76.60;;;43.20;;
4323;SDS011;2175;51.018;6.994;2022-10-18T13:23:07;74.07;;;42.00;;
4323;SDS011;2175;51.018;6.994;2022-10-18T13:25:53;68.63;;;38.87;;
4323;SDS011;2175;51.018;6.994;2022-10-18T13:28:48;63.47;;;36.87;;
4323;SDS011;2175;51.018;6.994;2022-10-18T13:31:29;64.83;;;37.13;;
4323;SDS011;2175;51.018;6.994;2022-10-18T13:34:15;63.90;;;36.37;;
4323;SDS011;2175;51.018;6.994;2022-10-18T13:36:55;66.20;;;37.63;;
4323;SDS011;2175;51.018;6.994;2022-10-18T13:39:21;60.03;;;35.30;;
4323;SDS011;2175;51.018;6.994;2022-10-18T14:01:22;50.23;;;29.67;;
4323;SDS011;2175;51.018;6.994;2022-10-18T14:07:59;43.37;;;26.33;;
4323;SDS011;2175;51.018;6.994;2022-10-18T14:14:36;34.23;;;22.67;;
4323;SDS011;2175;51.018;6.994;2022-10-18T14:20:31;37.63;;;21.00;;
4323;SDS011;2175;51.018;6.994;2022-10-18T14:23:38;27.00;;;17.23;;
4323;SDS011;2175;51.018;6.994;2022-10-18T14:26:41;28.33;;;16.40;;
4323;SDS011;2175;51.018;6.994;2022-10-18T14:29:17;35.70;;;16.80;;
4323;SDS011;2175;51.018;6.994;2022-10-18T14:31:55;29.47;;;15.63;;
4323;SDS011;2175;51.018;6.994;2022-10-18T14:34:51;26.70;;;14.93;;
4323;SDS011;2175;51.018;6.994;2022-10-18T14:37:26;23.43;;;13.97;;
4323;SDS011;2175;51.018;6.994;2022-10-18T14:40:02;26.90;;;13.53;;
4323;SDS011;2175;51.018;6.994;2022-10-18T14:43:11;27.10;;;11.90;;
4323;SDS011;2175;51.018;6.994;2022-10-18T14:46:22;23.67;;;12.73;;
4323;SDS011;2175;51.018;6.994;2022-10-18T14:52:42;22.30;;;10.83;;
4323;SDS011;2175;51.018;6.994;2022-10-18T14:55:12;26.43;;;12.20;;
4323;SDS011;2175;51.018;6.994;2022-10-18T14:57:49;27.67;;;13.27;;
4323;SDS011;2175;51.018;6.994;2022-10-18T15:00:23;31.13;;;15.13;;
4323;SDS011;2175;51.018;6.994;2022-10-18T15:02:51;29.53;;;14.93;;
4323;SDS011;2175;51.018;6.994;2022-10-18T15:07:45;30.53;;;14.97;;
4323;SDS011;2175;51.018;6.994;2022-10-18T15:10:15;23.70;;;13.57;;
4323;SDS011;2175;51.018;6.994;2022-10-18T15:12:44;30.03;;;14.60;;
4323;SDS011;2175;51.018;6.994;2022-10-18T15:15:19;23.00;;;13.33;;
4323;SDS011;2175;51.018;6.994;2022-10-18T15:17:55;20.53;;;12.20;;
4323;SDS011;2175;51.018;6.994;2022-10-18T15:21:23;19.10;;;10.37;;
4323;SDS011;2175;51.018;6.994;2022-10-18T15:25:02;22.83;;;10.80;;
4323;SDS011;2175;51.018;6.994;2022-10-18T15:27:19;23.07;;;10.67;;
4323;SDS011;2175;51.018;6.994;2022-10-18T15:29:53;19.53;;;10.60;;
4323;SDS011;2175;51.018;6.994;2022-10-18T15:32:21;18.27;;;10.67;;
4323;SDS011;2175;51.018;6.994;2022-10-18T15:34:50;22.53;;;11.07;;
4323;SDS011;2175;51.018;6.994;2022-10-18T15:37:18;19.43;;;10.40;;
4323;SDS011;2175;51.018;6.994;2022-10-18T15:42:50;19.53;;;10.60;;
4323;SDS011;2175;51.018;6.994;2022-10-18T15:45:39;18.60;;;10.50;;
4323;SDS011;2175;51.018;6.994;2022-10-18T15:48:16;29.97;;;11.90;;
4323;SDS011;2175;51.018;6.994;2022-10-18T15:50:52;21.20;;;11.00;;
4323;SDS011;2175;51.018;6.994;2022-10-18T15:53:49;20.53;;;11.03;;
4323;SDS011;2175;51.018;6.994;2022-10-18T15:56:33;27.90;;;10.80;;
4323;SDS011;2175;51.018;6.994;2022-10-18T15:59:22;23.17;;;10.10;;
4323;SDS011;2175;51.018;6.994;2022-10-18T16:02:31;25.17;;;9.83;;
4323;SDS011;2175;51.018;6.994;2022-10-18T16:04:58;22.33;;;10.27;;
4323;SDS011;2175;51.018;6.994;2022-10-18T16:07:27;20.83;;;10.20;;
4323;SDS011;2175;51.018;6.994;2022-10-18T16:10:14;17.87;;;9.10;;
4323;SDS011;2175;51.018;6.994;2022-10-18T16:12:39;22.43;;;10.80;;
4323;SDS011;2175;51.018;6.994;2022-10-18T16:15:05;28.43;;;10.90;;
4323;SDS011;2175;51.018;6.994;2022-10-18T16:17:31;26.73;;;10.10;;
4323;SDS011;2175;51.018;6.994;2022-10-18T16:20:26;28.53;;;11.40;;
4323;SDS011;2175;51.018;6.994;2022-10-18T16:23:24;28.87;;;11.13;;
4323;SDS011;2175;51.018;6.994;2022-10-18T16:25:52;25.10;;;11.27;;
4323;SDS011;2175;51.018;6.994;2022-10-18T16:28:29;19.27;;;9.67;;
4323;SDS011;2175;51.018;6.994;2022-10-18T16:31:01;28.27;;;10.63;;
4323;SDS011;2175;51.018;6.994;2022-10-18T16:34:18;16.80;;;8.90;;
4323;SDS011;2175;51.018;6.994;2022-10-18T16:37:56;21.43;;;11.40;;
4323;SDS011;2175;51.018;6.994;2022-10-18T16:41:36;29.53;;;10.60;;
4323;SDS011;2175;51.018;6.994;2022-10-18T16:44:27;22.87;;;10.37;;
4323;SDS011;2175;51.018;6.994;2022-10-18T16:46:52;23.27;;;10.47;;
4323;SDS011;2175;51.018;6.994;2022-10-18T16:49:21;23.80;;;10.60;;
4323;SDS011;2175;51.018;6.994;2022-10-18T16:51:48;21.87;;;10.10;;
4323;SDS011;2175;51.018;6.994;2022-10-18T16:54:14;22.57;;;10.40;;
4323;SDS011;2175;51.018;6.994;2022-10-18T16:56:49;24.30;;;10.73;;
4323;SDS011;2175;51.018;6.994;2022-10-18T16:59:24;23.17;;;11.53;;
4323;SDS011;2175;51.018;6.994;2022-10-18T17:01:55;37.87;;;11.97;;
4323;SDS011;2175;51.018;6.994;2022-10-18T17:04:50;24.80;;;12.40;;
4323;SDS011;2175;51.018;6.994;2022-10-18T17:07:39;27.30;;;12.03;;
4323;SDS011;2175;51.018;6.994;2022-10-18T17:10:05;27.00;;;11.27;;
4323;SDS011;2175;51.018;6.994;2022-10-18T17:12:36;24.07;;;11.70;;
4323;SDS011;2175;51.018;6.994;2022-10-18T17:15:02;29.80;;;12.13;;
4323;SDS011;2175;51.018;6.994;2022-10-18T17:17:28;27.90;;;12.70;;
4323;SDS011;2175;51.018;6.994;2022-10-18T17:19:54;27.40;;;12.17;;
4323;SDS011;2175;51.018;6.994;2022-10-18T17:22:20;25.17;;;11.90;;
4323;SDS011;2175;51.018;6.994;2022-10-18T17:24:46;36.37;;;12.23;;
4323;SDS011;2175;51.018;6.994;2022-10-18T17:27:11;29.60;;;11.80;;
4323;SDS011;2175;51.018;6.994;2022-10-18T17:29:37;30.53;;;12.47;;
4323;SDS011;2175;51.018;6.994;2022-10-18T17:32:04;22.20;;;10.83;;
4323;SDS011;2175;51.018;6.994;2022-10-18T17:34:31;26.13;;;10.33;;
4323;SDS011;2175;51.018;6.994;2022-10-18T17:36:56;18.40;;;9.70;;
4323;SDS011;2175;51.018;6.994;2022-10-18T17:39:22;20.17;;;10.27;;
4323;SDS011;2175;51.018;6.994;2022-10-18T17:41:48;26.60;;;11.30;;
4323;SDS011;2175;51.018;6.994;2022-10-18T17:44:16;27.30;;;11.70;;
4323;SDS011;2175;51.018;6.994;2022-10-18T17:46:42;27.53;;;11.00;;
4323;SDS011;2175;51.018;6.994;2022-10-18T17:49:07;23.80;;;11.80;;
4323;SDS011;2175;51.018;6.994;2022-10-18T17:51:33;23.30;;;11.50;;
4323;SDS011;2175;51.018;6.994;2022-10-18T17:53:58;23.27;;;11.10;;
4323;SDS011;2175;51.018;6.994;2022-10-18T17:56:24;18.73;;;11.90;;
4323;SDS011;2175;51.018;6.994;2022-10-18T17:58:54;24.20;;;11.97;;
4323;SDS011;2175;51.018;6.994;2022-10-18T18:01:21;24.23;;;10.93;;
4323;SDS011;2175;51.018;6.994;2022-10-18T18:03:47;25.00;;;12.00;;
4323;SDS011;2175;51.018;6.994;2022-10-18T18:08:39;23.43;;;11.13;;
4323;SDS011;2175;51.018;6.994;2022-10-18T18:11:05;33.67;;;12.53;;
4323;SDS011;2175;51.018;6.994;2022-10-18T18:13:31;22.07;;;12.00;;
4323;SDS011;2175;51.018;6.994;2022-10-18T18:15:56;20.20;;;10.50;;